Graham, FL (32042)

10:08 PM EST on December 22, 2014 (GMT -0500)
Keystone Airpark, Keystone He | Change Station
CLOSE
Current Station
Airport
Location: Keystone Airpark, Keystone He,
Elevation: 197 ft
Nearby Weather Stations
Active Advisory: Special Statement

Elev 197 ft 29.84 °N, 82.05 °W | Updated 13 minutes ago

Overcast
Overcast
70 °F
Feels Like 70 °F
N
5
Wind Variable Wind from SSE

Today
High -- | Low -- °F
--% Chance of Precip.
Yesterday
High -- | Low -- °F
Precip. -- in
7:20 AM 5:33 PM
New Moon, 2% visible
Pressure 29.92 in
Visibility 4.0 miles
Clouds Mostly Cloudy 2100 ft
Dew Point 70 °F
Humidity 100%
Rainfall 0.00 in
Snow Depth Not available.
UV 0 out of 12
Pollen .50 out of 12
Air Quality Not available.
Flu Activity Not available.
METAR K42J 230255Z AUTO 15004KT 4SM BKN021 21/21 A2992 RMK AO1 TSNO

More Conditions Fewer Conditions

Pressure 29.92 in
Visibility 4.0 miles
Clouds Mostly Cloudy 2100 ft
Dew Point 70 °F
Humidity 100%
Rainfall 0.00 in
Snow Depth Not available.
UV 0 out of 12
Pollen .50 out of 12
Air Quality Not available.
Flu Activity Not available.
METAR K42J 230255Z AUTO 15004KT 4SM BKN021 21/21 A2992 RMK AO1 TSNO

More Conditions Fewer Conditions

10-Day Weather Forecast

Almanac

Astronomy

Dec. 22, 2014 Rise Set
Actual Time
Civil Twilight
Nautical Twilight
Astronomical Twilight
Moon
Length of Visible Light
Length of Day
Tomorrow will be .
, % of the Moon is Illuminated

Today's Extremes

State Highs State Lows

Community

WunderPhotos

Upload Photos

1,779,763 photos uploaded!

WunderBlogs® & News

Nearby

Air Quality

  Air Quality AQ Index Pollutant
Not available.

Snow Depth

Station Depth Elevation

Earthquake Activity

City Distance Mag. Time & Date
Minimum magnitude displayed is 2.5.

Coastal Water Temperatures

Place Temperature

Nearby Weather Stations